Terminal Aerodrome Forecast
Issued by NWS Cleveland, OH

Home | Current Version | Previous Version | Graphics & Text | Print | Product List | Glossary On
Versions: 1 2 3 4 5 6 7 8 9 10 11 12 13 14 15 16 17 18 19 20 21 22 23 24 25 26 27 28 29 30
000
FTUS41 KCLE 151100
TAFCLE
TAF
KCLE 151139Z 1512/1618 20005KT 6SM BR SCT025 OVC050
      TEMPO 1512/1514 6SM BR SCT050
     FM151500 14005KT P6SM SCT050
     FM151900 13006KT P6SM BKN028
     FM160500 12007KT 5SM -RA BR BKN030
     FM161100 16011KT 3SM -RA BR OVC012=

USA.gov is the U.S. government's official web portal to all federal, state and local government web resources and services.